Pioche, Nevada Weather observations

Data are for observation ending at time listed.
 Day   Time    Ave.   Ave.  Ave.  Vector   Max.   Stn.    Total    Solar   Ave.  
  of    of     Air    Rel.  Wind   Wind    Wind   Baro.  Precip.   Rad.    Soil  
Year   Day     Temp.  Hum.  Speed  Dir.    Gust   Pres.                    Temp. 
2026   (PST)    F      %     mph   deg.    mph     mb.     in.     W/m2     F   
------------------------------------------------------------------------------
 121   21:30   48.9    28    1.3   170      3.6   822.4    0.00       0    55.7
 121   21:40   47.4    30    1.2   209      2.0   822.4    0.00       0    55.7
 121   21:50   47.3    29    1.1   201      2.5   822.4    0.00       0    55.7
 121   22:00   47.6    28    1.3   205      2.7   822.4    0.00       0    55.7
 121   22:10   47.4    29    0.8   242      2.0   822.4    0.00       0    55.7
 121   22:20   46.5    31    1.3   222      2.9   822.4    0.00       0    55.6
 121   22:30   47.3    29    1.1   222      2.8   822.5    0.00       0    55.7
 121   22:40   47.8    29    1.5   164      3.1   822.5    0.00       0    55.6
 121   22:50   48.0    30    1.4   161      4.0   822.5    0.00       0    55.6
 121   23:00   47.1    31    1.5   148      4.1   822.5    0.00       0    55.6
 121   23:10   47.0    31    0.9   170      2.3   822.6    0.00       0    55.6
 121   23:20   47.2    31    1.6   166      3.9   822.6    0.00       0    55.6
 121   23:30   46.5    32    1.9   142      5.2   822.6    0.00       0    55.6
 121   23:40   46.0    33    2.1   177      4.4   822.7    0.00       0    55.6
 121   23:50   45.5    34    2.7   152      4.8   822.7    0.00       0    55.6
 122    0:00   45.8    34    1.8   160      5.0   822.7    0.00       0    55.6
 122    0:10   45.9    33    1.1   176      2.6   822.6    0.00       0    55.5
 122    0:20   45.8    33    1.6   146      3.5   822.6    0.00       0    55.5
 122    0:30   46.4    32    1.8   146      4.2   822.5    0.00       0    55.5
 122    0:40   46.4    32    2.0   147      3.9   822.5    0.00       0    55.5
 122    0:50   45.9    34    1.8   148      3.9   822.5    0.00       0    55.4
 122    1:00   45.1    35    2.2   144      4.8   822.4    0.00       0    55.4
 122    1:10   45.5    34    1.0   162      4.1   822.4    0.00       0    55.4
 122    1:20   44.7    36    0.4   150      1.6   822.3    0.00       0    55.4
 122    1:30   44.0    38    0.5   153      1.8   822.3    0.00       0    55.4
 122    1:40   43.5    38    0.9   204      2.1   822.3    0.00       0    55.4
 122    1:50   43.4    38    0.5   180      1.5   822.3    0.00       0    55.4
 122    2:00   43.1    38    0.9   216      1.9   822.3    0.00       0    55.4
 122    2:10   42.6    37    1.9   260      4.1   822.3    0.00       0    55.3
 122    2:20   43.8    34    2.6   265      5.0   822.3    0.00       0    55.2
 122    2:30   44.5    34    2.1   261      3.8   822.3    0.00       0    55.2
 122    2:40   43.4    35    2.1   262      3.3   822.3    0.00       0    55.2
 122    2:50   42.8    36    1.9   263      3.4   822.3    0.00       0    55.2
 122    3:00   42.5    39    1.3   216      2.0   822.2    0.00       0    55.2
 122    3:10   42.5    42    1.0   216      2.5   822.2    0.00       0    55.2
 122    3:20   43.7    44    0.7   204      2.0   822.2    0.00       0    55.1
 122    3:30   42.8    42    0.9   190      2.1   822.1    0.00       0    55.1
 122    3:40   42.1    58    1.1   198      2.3   822.1    0.00       0    55.1
 122    3:50   41.8    56    0.5   171      1.9   822.1    0.00       0    55.0
 122    4:00   42.4    42    2.0   142      4.1   822.1    0.00       0    55.0
 122    4:10   42.5    43    1.4   135      2.9   822.1    0.00       0    55.0
 122    4:20   43.8    39    1.9   138      4.0   822.1    0.00       0    55.0
 122    4:30   42.7    42    1.3   247      3.8   822.2    0.00       0    54.9
 122    4:40   42.5    41    1.7   237      3.5   822.2    0.00       1    55.0
 122    4:50   42.2    42    0.9   182      2.6   822.3    0.00       8    54.9
 122    5:00   42.0    43    0.9   163      3.1   822.3    0.00      14    54.9
 122    5:10   42.9    42    1.0   156      2.9   822.4    0.00      23    54.8
 122    5:20   43.8    41    0.4   175      1.8   822.4    0.00      32    54.8
 122    5:30   44.3    41    0.2   286      1.5   822.6    0.00      40    54.8
 122    5:40   45.3    38    1.5   273      2.7   822.7    0.00      51    54.8
 122    5:50   46.9    36    1.9   288      3.1   822.8    0.00      61    54.7
 122    6:00   48.3    33    2.6   283      4.4   822.8    0.00     139    54.7
 122    6:10   49.6    32    2.8   290      5.3   822.9    0.00     165    54.6
 122    6:20   50.7    33    2.9   285      5.6   823.0    0.00     137    54.6
 122    6:30   50.9    36    2.7   283      5.3   823.0    0.00     192    54.6
 122    6:40   51.7    34    2.1   292      4.9   823.1    0.00     243    54.6
 122    6:50   52.8    34    2.0   294      4.4   823.1    0.00     320    54.6
 122    7:00   54.1    31    2.2   299      4.1   823.1    0.00     369    54.6
 122    7:10   55.6    25    0.9   322      2.9   823.2    0.00     462    54.6
 122    7:20   57.1    22    0.9    97      3.6   823.2    0.00     543    54.6
 122    7:30   58.0    21    0.9    83      4.1   823.2    0.00     506    54.6
 122    7:40   58.0    21    1.2    87      4.8   823.3    0.00     535    54.6
 122    7:50   58.1    21    2.3    93      5.6   823.3    0.00     600    54.6
 122    8:00   58.5    21    3.2    86      9.8   823.3    0.00     685    54.6
 122    8:10   58.2    21    4.1    96      8.1   823.3    0.00     736    54.6
 122    8:20   59.3    20    5.0    80      8.7   823.3    0.00     746    54.6
 122    8:30   59.6    19    3.4    89      9.2   823.3    0.00     733    54.6
 122    8:40   60.4    18    5.3    88     10.4   823.3    0.00     687    54.6
 122    8:50   60.3    16    5.0   103     10.3   823.3    0.00     626    54.6
 122    9:00   60.3    15    7.6    95     13.2   823.2    0.00     675    54.6
 122    9:10   61.2    14    6.0    84     12.3   823.2    0.00     757    54.6
 122    9:20   61.8    14    6.4    85     11.7   823.1    0.00     822    54.6
 122    9:30   62.5    13    4.1    71      9.9   823.1    0.00     986    54.6
 122    9:40   62.9    13    5.0   119     14.1   823.2    0.00    1011    54.6
 122    9:50   62.6    12    7.0   133     13.4   823.2    0.00    1026    54.7
 122   10:00   63.0    11    5.9   108     13.0   823.1    0.00    1057    54.7
 122   10:10   62.9    11    6.5   100     12.0   823.1    0.00    1054    54.7
 122   10:20   64.0    12    3.6   165     13.3   823.0    0.00    1077    54.6
 122   10:30   64.2    12    4.7    86     12.9   822.9    0.00    1091    54.6
 122   10:40   64.4    12    6.4   121     16.8   822.8    0.00    1034    54.7
 122   10:50   64.5    12    5.7   135     14.0   822.8    0.00    1016    54.7
 122   11:00   64.1    12    5.7   125     16.8   822.6    0.00    1135    54.7
 122   11:10   65.9    12    4.0   195     11.0   822.5    0.00    1124    54.6
 122   11:20   65.7    12    4.8   135     11.3   822.5    0.00    1108    54.7
 122   11:30   66.5    12    3.2   181     11.0   822.3    0.00    1118    54.8
 122   11:40   65.8    12    4.7   116     10.5   822.2    0.00    1130    54.8
 122   11:50   65.9    12    5.3   108     13.2   822.1    0.00    1067    54.9
 122   12:00   65.6    12    5.8   113     13.7   821.9    0.00    1034    54.9
 122   12:10   66.1    12    7.3   132     13.2   821.9    0.00    1004    55.0
 122   12:20   66.6    12    5.5   176     13.4   821.8    0.00     937    55.0
 122   12:30   67.7    12    5.0   161     11.8   821.7    0.00     876    55.1
 122   12:40   66.6    11    6.4    95     14.4   821.6    0.00     944    55.1
 122   12:50   67.4    10    7.8    98     14.9   821.5    0.00    1049    55.2
 122   13:00   66.4    11    5.7    94     11.6   821.4    0.00     795    55.3
 122   13:10   67.0    11    6.5   125     13.5   821.3    0.00     629    55.3
 122   13:20   68.1    10    6.3   130     13.0   821.2    0.00    1155    55.4
 122   13:30   68.0    10    6.8   115     15.6   821.0    0.00     867    55.5
 122   13:40   68.2    10    5.6   164     11.5   821.0    0.00     989    55.5
 122   13:50   68.6    10    6.1   135     11.4   820.9    0.00     971    55.7
 122   14:00   68.5     9    8.3   109     18.2   820.7    0.00     910    55.7
 122   14:10   68.1     9    6.8   118     14.0   820.5    0.00     881    55.8
 122   14:20   68.8     9    6.8   123     12.1   820.4    0.00     833    55.9
 122   14:30   67.9     9    7.3   115     15.6   820.4    0.00     676    56.0
 122   14:40   68.0     9    5.7   156     12.9   820.2    0.00     454    56.0
 122   14:50   68.9     9    2.5   178      7.7   820.0    0.00     187    56.1
 122   15:00   68.4     8    5.0   116     13.1   819.9    0.00     164    56.2
 122   15:10   67.9     9    4.8    97     12.8   819.8    0.00     150    56.4
 122   15:20   68.3     9    3.9   155     10.2   819.7    0.00     151    56.4
 122   15:30   68.5     9    4.4   167      9.9   819.6    0.00     148    56.5
 122   15:40   68.1     9    3.0   138      6.7   819.5    0.00     148    56.6
 122   15:50   67.7     9    4.6   121     10.5   819.5    0.00     136    56.7
 122   16:00   67.9     9    3.5   197      9.6   819.4    0.00     129    56.8
 122   16:10   68.5     8    3.2   115      8.8   819.4    0.00     122    56.8
 122   16:20   68.2     8    6.2   106     12.1   819.4    0.00      96    56.9
 122   16:30   68.1     9    3.3   149      7.8   819.4    0.00      87    57.0
 122   16:40   67.9     9    3.7   172      8.2   819.4    0.00      80    57.0
 122   16:50   67.2     9    4.7   149     11.8   819.4    0.00      75    57.1
 122   17:00   66.9     9    3.5   164      8.4   819.3    0.00      86    57.1
 122   17:10   66.8     9    2.5   166      5.1   819.2    0.00      93    57.2
 122   17:20   66.5     9    3.2   140      6.6   819.3    0.00      90    57.3
 122   17:30   66.3    10    1.5   181      3.1   819.3    0.00      84    57.3
 122   17:40   66.0    10    3.1   150      7.8   819.3    0.00      67    57.4
 122   17:50   65.4    10    4.9   147     10.7   819.3    0.00      43    57.4
 122   18:00   64.9    10    4.7   147     10.5   819.3    0.00      28    57.5
 122   18:10   64.7    10    4.7   143     10.2   819.3    0.00      18    57.5
 122   18:20   64.3    10    2.8   161      5.3   819.2    0.00      11    57.6
 122   18:30   63.6    10    2.6   166      4.8   819.2    0.00       5    57.6
 122   18:40   62.6    12    1.9   146      3.9   819.2    0.00       0    57.7
 122   18:50   61.1    13    2.7   144      4.5   819.3    0.00       0    57.7
 122   19:00   59.9    14    3.7   145      5.3   819.3    0.00       0    57.8
 122   19:10   59.1    15    2.5   146      4.4   819.4    0.00       0    57.8
 122   19:20   58.7    16    3.0   146      5.0   819.4    0.00       0    57.8
 122   19:30   58.4    16    3.9   142      5.3   819.4    0.00       0    57.8
 122   19:40   58.7    15    3.2   144      4.8   819.5    0.00       0    57.8
 122   19:50   58.4    15    3.7   142      4.9   819.6    0.00       0    57.8
 122   20:00   57.3    17    4.3   144      5.3   819.6    0.00       0    57.8
 122   20:10   56.7    17    4.9   142      5.7   819.6    0.00       0    57.9
 122   20:20   56.5    17    4.6   143      5.6   819.7    0.00       0    57.9
 122   20:30   56.6    16    4.2   142      5.1   819.7    0.00       0    57.9
 122   20:40   56.8    15    4.2   138      5.0   819.7    0.00       0    57.9
 122   20:50   56.7    15    3.5   138      4.7   819.8    0.00       0    57.9
 122   21:00   56.7    16    0.4   142      2.7   819.8    0.00       0    58.0
 122   21:10   56.3    16    0.4   168      2.7   819.8    0.00       0    57.9
 122   21:20   55.7    17    0.7   154      2.0   819.8    0.00       0    58.0

Return to Pioche, Nevada graphs page.


Western Regional Climate Center,wrcc@dri.edu